createdAt,value
2019-02-28T00:00:58.379Z,14.35
2019-02-28T00:03:27.298Z,14.27
2019-02-28T00:05:56.692Z,11.80
2019-02-28T00:08:25.191Z,12.35
2019-02-28T00:10:54.088Z,12.15
2019-02-28T00:13:22.614Z,11.18
2019-02-28T00:15:51.210Z,10.88
2019-02-28T00:18:19.592Z,9.35
2019-02-28T00:20:48.112Z,9.73
2019-02-28T00:23:19.210Z,9.38
2019-02-28T00:25:47.023Z,11.50
2019-02-28T00:28:15.560Z,10.50
2019-02-28T00:30:43.956Z,10.45
2019-02-28T00:33:12.598Z,10.85
2019-02-28T00:35:44.697Z,10.35
2019-02-28T00:38:11.737Z,10.60
2019-02-28T00:40:41.925Z,12.40
2019-02-28T00:43:10.352Z,11.78
2019-02-28T00:45:38.859Z,11.12
2019-02-28T00:48:07.260Z,11.48
2019-02-28T00:50:35.965Z,11.00
2019-02-28T00:53:06.558Z,10.48
2019-02-28T00:55:35.800Z,10.00
2019-02-28T00:58:04.189Z,9.08
2019-02-28T01:00:37.198Z,9.45
2019-02-28T01:03:04.689Z,9.75
2019-02-28T01:05:36.597Z,10.65
2019-02-28T01:08:05.616Z,8.80
2019-02-28T01:10:38.944Z,9.40
2019-02-28T01:13:04.678Z,9.30
2019-02-28T01:15:33.149Z,9.38
2019-02-28T01:18:01.617Z,9.80
2019-02-28T01:20:30.659Z,9.43
2019-02-28T01:22:59.360Z,9.73
2019-02-28T01:25:27.897Z,8.88
2019-02-28T01:27:58.102Z,8.70
2019-02-28T01:30:26.505Z,8.88
2019-02-28T01:32:55.031Z,10.00
2019-02-28T01:35:23.644Z,10.30
2019-02-28T01:37:52.976Z,8.70
2019-02-28T01:40:21.684Z,8.98
2019-02-28T01:42:53.917Z,9.58
2019-02-28T01:45:20.520Z,11.15
2019-02-28T01:47:51.716Z,9.40
2019-02-28T01:50:19.344Z,8.05
2019-02-28T01:52:47.938Z,8.93
2019-02-28T01:55:16.419Z,8.00
2019-02-28T01:57:45.212Z,10.68
2019-02-28T02:00:14.433Z,9.75
2019-02-28T02:02:43.063Z,9.53
2019-02-28T02:05:11.542Z,8.98
2019-02-28T02:07:40.053Z,8.18
2019-02-28T02:10:21.341Z,8.00
2019-02-28T02:12:49.404Z,9.20
2019-02-28T02:15:18.012Z,9.30
2019-02-28T02:17:46.435Z,8.75
2019-02-28T02:20:14.933Z,9.30
2019-02-28T02:22:44.414Z,8.93
2019-02-28T02:25:13.849Z,8.80
2019-02-28T02:27:42.376Z,8.40
2019-02-28T02:30:20.950Z,9.60
2019-02-28T02:32:49.485Z,9.10
2019-02-28T02:35:18.215Z,7.95
2019-02-28T02:37:47.702Z,7.00
2019-02-28T02:40:16.280Z,7.97
2019-02-28T02:42:48.388Z,9.23
2019-02-28T02:45:15.441Z,8.98
2019-02-28T02:47:43.864Z,8.88
2019-02-28T02:50:13.177Z,7.83
2019-02-28T02:52:41.689Z,7.75
2019-02-28T02:55:10.314Z,7.12
2019-02-28T02:57:38.803Z,8.10
2019-02-28T03:00:13.727Z,6.60
2019-02-28T03:02:42.334Z,7.55
2019-02-28T03:05:10.737Z,7.80
2019-02-28T03:07:39.160Z,6.25
2019-02-28T03:10:09.561Z,7.20
2019-02-28T03:12:37.984Z,6.83
2019-02-28T03:15:14.775Z,5.72
2019-02-28T03:17:48.405Z,8.05
2019-02-28T03:20:16.867Z,7.42
2019-02-28T03:22:45.284Z,6.97
2019-02-28T03:25:14.132Z,7.87
2019-02-28T03:27:42.549Z,5.92
2019-02-28T03:30:25.773Z,7.42
2019-02-28T03:32:46.519Z,7.95
2019-02-28T03:35:16.320Z,6.42
2019-02-28T03:37:44.904Z,6.08
2019-02-28T03:40:14.815Z,6.33
2019-02-28T03:42:43.241Z,6.90
2019-02-28T03:45:16.067Z,5.83
2019-02-28T03:47:44.964Z,6.15
2019-02-28T03:50:13.473Z,7.08
2019-02-28T03:52:44.172Z,6.10
2019-02-28T03:55:12.499Z,6.55
2019-02-28T03:57:41.104Z,5.15
2019-02-28T04:00:15.641Z,6.47
2019-02-28T04:02:44.168Z,5.08
2019-02-28T04:05:12.961Z,5.53
2019-02-28T04:07:41.372Z,4.72
2019-02-28T04:10:09.897Z,5.45
2019-02-28T04:12:45.042Z,4.85
2019-02-28T04:15:16.810Z,5.70
2019-02-28T04:17:45.198Z,5.35
2019-02-28T04:20:13.754Z,5.28
2019-02-28T04:22:42.184Z,5.03
2019-02-28T04:25:10.701Z,5.42
2019-02-28T04:27:40.511Z,6.33
2019-02-28T04:30:09.636Z,4.70
2019-02-28T04:32:38.078Z,5.12
2019-02-28T04:35:06.747Z,5.58
2019-02-28T04:37:35.146Z,5.33
2019-02-28T04:40:03.802Z,4.62
2019-02-28T04:42:36.612Z,4.65
2019-02-28T04:45:12.646Z,5.03
2019-02-28T04:47:43.029Z,4.70
2019-02-28T04:50:12.275Z,4.62
2019-02-28T04:52:46.480Z,4.33
2019-02-28T04:55:11.607Z,5.08
2019-02-28T04:57:41.310Z,4.60
2019-02-28T05:00:10.079Z,5.15
2019-02-28T05:02:38.623Z,6.50
2019-02-28T05:05:12.059Z,5.53
2019-02-28T05:07:38.784Z,4.15
2019-02-28T05:10:08.438Z,4.60
2019-02-28T05:12:39.897Z,6.00
2019-02-28T05:15:14.681Z,5.00
2019-02-28T05:17:45.718Z,4.00
2019-02-28T05:20:14.134Z,4.20
2019-02-28T05:22:44.365Z,4.67
2019-02-28T05:25:17.725Z,4.05
2019-02-28T05:27:43.869Z,4.35
2019-02-28T05:30:18.119Z,5.22
2019-02-28T05:32:43.259Z,5.00
2019-02-28T05:35:12.548Z,4.80
2019-02-28T05:37:46.700Z,4.78
2019-02-28T05:40:12.093Z,3.85
2019-02-28T05:42:40.689Z,4.90
2019-02-28T05:45:17.805Z,4.75
2019-02-28T05:47:47.551Z,4.95
2019-02-28T05:50:17.274Z,5.10
2019-02-28T05:52:46.155Z,5.05
2019-02-28T05:55:14.868Z,6.00
2019-02-28T05:57:44.637Z,6.87
2019-02-28T06:00:15.878Z,6.20
2019-02-28T06:02:44.571Z,7.42
2019-02-28T06:05:13.088Z,5.75
2019-02-28T06:07:41.529Z,6.22
2019-02-28T06:10:10.498Z,5.08
2019-02-28T06:12:40.531Z,6.70
2019-02-28T06:15:19.293Z,6.28
2019-02-28T06:17:47.812Z,6.75
2019-02-28T06:20:17.861Z,7.65
2019-02-28T06:22:47.020Z,7.47
2019-02-28T06:25:24.017Z,6.72
2019-02-28T06:27:50.271Z,6.62
2019-02-28T06:30:17.768Z,6.17
2019-02-28T06:32:47.985Z,6.45
2019-02-28T06:35:20.256Z,6.10
2019-02-28T06:37:47.266Z,6.20
2019-02-28T06:40:16.070Z,6.22
2019-02-28T06:42:46.818Z,6.15
2019-02-28T06:45:15.073Z,6.97
2019-02-28T06:47:48.256Z,7.47
2019-02-28T06:50:13.992Z,7.10
2019-02-28T06:52:42.504Z,7.95
2019-02-28T06:55:14.728Z,8.35
2019-02-28T06:57:44.919Z,11.18
2019-02-28T07:00:14.214Z,12.13
2019-02-28T07:02:42.792Z,11.83
2019-02-28T07:05:11.848Z,14.28
2019-02-28T07:07:45.852Z,13.68
2019-02-28T07:10:13.412Z,14.58
2019-02-28T07:12:42.976Z,16.02
2019-02-28T07:15:12.700Z,15.48
2019-02-28T07:17:42.688Z,18.57
2019-02-28T07:20:13.310Z,19.62
2019-02-28T07:22:41.838Z,15.50
2019-02-28T07:25:12.785Z,17.12
2019-02-28T07:27:41.152Z,16.55
2019-02-28T07:30:17.469Z,18.48
2019-02-28T07:32:43.573Z,16.57
2019-02-28T07:35:12.226Z,14.05
2019-02-28T07:37:40.760Z,13.13
2019-02-28T07:40:15.747Z,13.68
2019-02-28T07:42:41.196Z,14.63
2019-02-28T07:45:12.074Z,15.20
2019-02-28T07:47:42.482Z,13.77
2019-02-28T07:50:14.803Z,11.70
2019-02-28T07:52:43.316Z,11.80
2019-02-28T07:55:12.303Z,12.40
2019-02-28T07:57:40.843Z,11.33
2019-02-28T08:00:18.229Z,11.60
2019-02-28T08:02:44.976Z,12.17
2019-02-28T08:05:13.573Z,13.27
2019-02-28T08:07:42.073Z,11.80
2019-02-28T08:10:15.984Z,14.67
2019-02-28T08:12:45.694Z,11.10
2019-02-28T08:15:22.348Z,12.37
2019-02-28T08:17:50.381Z,13.00
2019-02-28T08:20:19.815Z,12.00
2019-02-28T08:22:48.371Z,13.13
2019-02-28T08:25:18.570Z,13.07
2019-02-28T08:27:47.427Z,13.40
2019-02-28T08:30:19.422Z,12.97
2019-02-28T08:32:49.180Z,13.00
2019-02-28T08:35:17.556Z,12.57
2019-02-28T08:37:46.135Z,12.77
2019-02-28T08:40:16.964Z,12.93
2019-02-28T08:42:45.583Z,12.87
2019-02-28T08:45:14.770Z,13.10
2019-02-28T08:47:43.341Z,13.53
2019-02-28T08:50:19.478Z,11.70
2019-02-28T08:52:50.247Z,11.40
2019-02-28T08:55:27.890Z,11.27
2019-02-28T08:57:54.781Z,11.70
2019-02-28T09:00:19.973Z,12.20
2019-02-28T09:02:53.088Z,12.00
2019-02-28T09:05:25.638Z,11.80
2019-02-28T09:07:52.021Z,12.30
2019-02-28T09:10:20.993Z,12.07
2019-02-28T09:12:50.072Z,10.47
2019-02-28T09:15:19.716Z,11.60
2019-02-28T09:17:48.520Z,12.80
2019-02-28T09:20:17.418Z,10.53
2019-02-28T09:22:46.028Z,9.80
2019-02-28T09:25:21.368Z,9.87
2019-02-28T09:27:47.228Z,9.57
2019-02-28T09:30:22.736Z,10.30
2019-02-28T09:32:51.433Z,11.00
2019-02-28T09:35:20.193Z,10.10
2019-02-28T09:37:48.815Z,9.53
2019-02-28T09:40:17.531Z,12.30
2019-02-28T09:42:47.915Z,11.60
2019-02-28T09:45:18.458Z,9.83
2019-02-28T09:47:47.017Z,10.20
2019-02-28T09:50:19.451Z,8.60
2019-02-28T09:52:49.609Z,9.00
2019-02-28T09:55:18.487Z,9.57
2019-02-28T09:57:47.001Z,8.43
2019-02-28T10:00:17.115Z,7.33
2019-02-28T10:02:47.791Z,7.67
2019-02-28T10:05:17.499Z,7.50
2019-02-28T10:07:45.964Z,7.77
2019-02-28T10:10:20.682Z,7.83
2019-02-28T10:12:48.054Z,8.20
2019-02-28T10:15:18.803Z,7.53
2019-02-28T10:17:47.529Z,7.40
2019-02-28T10:20:26.458Z,7.47
2019-02-28T10:22:51.693Z,6.13
2019-02-28T10:25:20.180Z,5.30
2019-02-28T10:27:48.696Z,6.57
2019-02-28T10:30:30.522Z,6.03
2019-02-28T10:32:49.713Z,6.60
2019-02-28T10:35:18.939Z,9.13
2019-02-28T10:37:47.538Z,9.93
2019-02-28T10:40:19.108Z,8.93
2019-02-28T10:42:49.437Z,8.77
2019-02-28T10:45:19.175Z,9.23
2019-02-28T10:47:47.649Z,6.77
2019-02-28T10:50:21.508Z,5.80
2019-02-28T10:52:50.279Z,4.70
2019-02-28T10:55:19.423Z,4.60
2019-02-28T10:57:49.695Z,3.73
2019-02-28T11:00:32.764Z,5.30
2019-02-28T11:03:00.729Z,3.00
2019-02-28T11:05:31.242Z,3.47
2019-02-28T11:08:01.434Z,3.67
2019-02-28T11:10:35.433Z,3.97
2019-02-28T11:13:09.202Z,3.40
2019-02-28T11:15:38.090Z,3.27
2019-02-28T11:18:09.659Z,2.30
2019-02-28T11:20:39.670Z,2.50
2019-02-28T11:23:14.217Z,2.80
2019-02-28T11:25:39.072Z,2.43
2019-02-28T11:28:07.948Z,2.23
2019-02-28T11:30:36.673Z,2.43
2019-02-28T11:33:05.507Z,3.10
2019-02-28T11:35:35.813Z,3.37
2019-02-28T11:38:05.101Z,3.50
2019-02-28T11:40:34.151Z,3.27
2019-02-28T11:43:04.821Z,3.40
2019-02-28T11:45:34.331Z,3.37
2019-02-28T11:48:04.237Z,4.20
2019-02-28T11:50:32.781Z,3.20
2019-02-28T11:53:04.940Z,3.10
2019-02-28T11:55:31.737Z,3.20
2019-02-28T11:58:00.754Z,3.40
2019-02-28T12:00:32.550Z,3.30
2019-02-28T12:03:02.095Z,3.30
2019-02-28T12:05:30.656Z,2.87
2019-02-28T12:07:59.555Z,3.10
2019-02-28T12:10:28.144Z,3.80
2019-02-28T12:12:56.559Z,2.90
2019-02-28T12:15:26.296Z,4.00
2019-02-28T12:17:54.702Z,3.10
2019-02-28T12:20:26.455Z,3.20
2019-02-28T12:22:53.627Z,2.60
2019-02-28T12:25:23.030Z,2.73
2019-02-28T12:27:51.423Z,2.80
2019-02-28T12:30:25.143Z,3.50
2019-02-28T12:32:54.992Z,3.77
2019-02-28T12:35:23.682Z,3.17
2019-02-28T12:37:53.900Z,3.70
2019-02-28T12:40:26.830Z,3.03
2019-02-28T12:42:55.438Z,2.53
2019-02-28T12:45:27.918Z,2.97
2019-02-28T12:47:56.527Z,3.43
2019-02-28T12:50:25.750Z,2.30
2019-02-28T12:52:54.306Z,2.90
2019-02-28T12:55:22.828Z,3.00
2019-02-28T12:57:51.773Z,2.87
2019-02-28T13:00:27.220Z,2.60
2019-02-28T13:02:55.786Z,3.53
2019-02-28T13:05:24.516Z,3.27
2019-02-28T13:07:53.095Z,2.30
2019-02-28T13:10:26.842Z,2.60
2019-02-28T13:12:52.766Z,3.00
2019-02-28T13:15:22.352Z,2.33
2019-02-28T13:17:51.263Z,2.23
2019-02-28T13:20:24.640Z,2.00
2019-02-28T13:22:55.610Z,2.23
2019-02-28T13:25:24.849Z,2.13
2019-02-28T13:27:53.448Z,2.17
2019-02-28T13:30:23.981Z,2.10
2019-02-28T13:32:54.114Z,1.80
2019-02-28T13:35:25.994Z,1.80
2019-02-28T13:37:54.414Z,2.03
2019-02-28T13:40:23.866Z,1.97
2019-02-28T13:42:54.433Z,1.57
2019-02-28T13:45:24.031Z,2.83
2019-02-28T13:47:53.034Z,1.97
2019-02-28T13:50:25.622Z,2.13
2019-02-28T13:52:55.585Z,1.50
2019-02-28T13:55:24.093Z,1.57
2019-02-28T13:57:52.973Z,2.40
2019-02-28T14:00:27.637Z,2.23
2019-02-28T14:02:59.320Z,2.50
2019-02-28T14:05:27.973Z,2.33
2019-02-28T14:07:57.016Z,3.20
2019-02-28T14:10:29.596Z,2.30
2019-02-28T14:12:58.122Z,2.27
2019-02-28T14:15:34.171Z,2.17
2019-02-28T14:18:02.817Z,2.10
2019-02-28T14:20:33.168Z,1.73
2019-02-28T14:23:01.580Z,1.50
2019-02-28T14:25:30.282Z,1.90
2019-02-28T14:28:00.320Z,1.93
2019-02-28T14:30:29.595Z,1.90
2019-02-28T14:32:59.601Z,1.50
2019-02-28T14:35:33.852Z,1.90
2019-02-28T14:37:59.537Z,1.50
2019-02-28T14:40:28.021Z,2.30
2019-02-28T14:42:56.531Z,2.00
2019-02-28T14:45:25.453Z,1.73
2019-02-28T14:47:57.287Z,1.90
2019-02-28T14:50:27.629Z,1.63
2019-02-28T14:52:56.385Z,1.93
2019-02-28T14:55:29.230Z,1.90
2019-02-28T14:57:59.322Z,1.63
2019-02-28T15:00:29.137Z,1.43
2019-02-28T15:02:59.387Z,1.60
2019-02-28T15:05:29.161Z,1.33
2019-02-28T15:07:58.136Z,1.43
2019-02-28T15:10:27.321Z,1.77
2019-02-28T15:13:00.072Z,1.53
2019-02-28T15:15:28.978Z,1.90
2019-02-28T15:17:57.587Z,1.87
2019-02-28T15:20:31.808Z,1.80
2019-02-28T15:22:59.617Z,1.70
2019-02-28T15:25:28.957Z,1.43
2019-02-28T15:27:58.528Z,1.60
2019-02-28T15:30:30.555Z,1.47
2019-02-28T15:33:00.559Z,1.60
2019-02-28T15:35:30.061Z,1.20
2019-02-28T15:37:58.712Z,1.63
2019-02-28T15:40:30.592Z,1.70
2019-02-28T15:42:59.260Z,1.40
2019-02-28T15:45:27.831Z,1.37
2019-02-28T15:47:59.123Z,2.17
2019-02-28T15:50:33.434Z,1.87
2019-02-28T15:53:02.289Z,2.23
2019-02-28T15:55:30.876Z,1.33
2019-02-28T15:58:02.690Z,1.30
2019-02-28T16:00:31.829Z,1.90
2019-02-28T16:03:00.513Z,1.77
2019-02-28T16:05:29.314Z,1.60
2019-02-28T16:07:58.400Z,2.07
2019-02-28T16:10:31.897Z,2.00
2019-02-28T16:13:00.264Z,1.73
2019-02-28T16:15:28.948Z,2.03
2019-02-28T16:17:57.369Z,2.23
2019-02-28T16:20:31.830Z,2.60
2019-02-28T16:23:01.968Z,1.73
2019-02-28T16:25:32.560Z,1.77
2019-02-28T16:28:01.110Z,2.30
2019-02-28T16:30:32.193Z,3.10
2019-02-28T16:33:00.233Z,2.10
2019-02-28T16:35:29.117Z,2.33
2019-02-28T16:37:57.630Z,2.27
2019-02-28T16:40:28.296Z,2.67
2019-02-28T16:42:56.870Z,2.87
2019-02-28T16:45:31.966Z,10.07
2019-02-28T16:48:02.978Z,4.00
2019-02-28T16:50:34.698Z,2.83
2019-02-28T16:53:03.992Z,3.30
2019-02-28T16:55:33.184Z,3.00
2019-02-28T16:58:03.715Z,18.93
2019-02-28T17:00:32.574Z,28.63
2019-02-28T17:03:04.056Z,4.50
2019-02-28T17:05:31.994Z,2.53
2019-02-28T17:08:00.506Z,5.20
2019-02-28T17:10:36.507Z,3.17
2019-02-28T17:13:28.884Z,3.30
2019-02-28T17:16:16.279Z,2.90
2019-02-28T17:18:46.834Z,2.80
2019-02-28T17:21:17.971Z,5.33
2019-02-28T17:23:46.158Z,3.10
2019-02-28T17:26:15.704Z,3.00
2019-02-28T17:28:55.647Z,3.20
2019-02-28T17:31:44.504Z,3.37
2019-02-28T17:34:18.038Z,3.60
2019-02-28T17:36:47.707Z,3.20
2019-02-28T17:39:17.168Z,2.43
2019-02-28T17:41:45.981Z,3.10
2019-02-28T17:44:43.719Z,2.67
2019-02-28T17:48:12.707Z,3.03
2019-02-28T17:51:46.631Z,2.97
2019-02-28T17:55:31.089Z,2.77
2019-02-28T17:58:19.568Z,3.07
2019-02-28T18:01:35.038Z,2.80
2019-02-28T18:04:48.471Z,2.87
2019-02-28T18:08:07.025Z,4.00
2019-02-28T18:11:26.576Z,4.50
2019-02-28T18:14:34.254Z,4.07
2019-02-28T18:17:45.534Z,3.40
2019-02-28T18:21:04.531Z,4.90
2019-02-28T18:24:38.010Z,5.47
2019-02-28T18:27:58.325Z,7.67
2019-02-28T18:31:26.897Z,9.37
2019-02-28T18:34:02.263Z,7.20
2019-02-28T18:36:31.477Z,7.80
2019-02-28T18:39:01.119Z,8.00
2019-02-28T18:41:29.919Z,7.80
2019-02-28T18:43:59.948Z,9.40
2019-02-28T18:46:29.794Z,8.40
2019-02-28T18:48:59.292Z,8.50
2019-02-28T18:51:27.678Z,8.73
2019-02-28T18:53:56.222Z,9.67
2019-02-28T18:56:24.596Z,8.00
2019-02-28T18:58:53.003Z,7.67
2019-02-28T19:01:21.724Z,7.73
2019-02-28T19:03:50.220Z,8.73
2019-02-28T19:06:18.819Z,7.40
2019-02-28T19:08:47.206Z,9.17
2019-02-28T19:11:15.668Z,8.43
2019-02-28T19:13:44.249Z,9.90
2019-02-28T19:16:13.058Z,11.50
2019-02-28T19:18:41.453Z,12.03
2019-02-28T19:21:09.955Z,18.57
2019-02-28T19:23:38.454Z,20.17
2019-02-28T19:26:06.953Z,22.23
2019-02-28T19:28:37.158Z,23.50
2019-02-28T19:31:05.638Z,26.23
2019-02-28T19:33:34.445Z,25.77
2019-02-28T19:36:02.824Z,23.53
2019-02-28T19:38:31.508Z,23.50
2019-02-28T19:41:01.734Z,21.70
2019-02-28T19:43:30.327Z,17.90
2019-02-28T19:45:58.714Z,15.93
2019-02-28T19:48:27.105Z,15.80
2019-02-28T19:50:55.692Z,11.37
2019-02-28T19:53:24.686Z,8.73
2019-02-28T19:55:53.167Z,7.97
2019-02-28T19:58:21.849Z,7.17
2019-02-28T20:00:51.966Z,8.27
2019-02-28T20:03:20.641Z,5.40
2019-02-28T20:05:49.166Z,5.90
2019-02-28T20:08:18.166Z,6.10
2019-02-28T20:10:48.351Z,5.83
2019-02-28T20:13:17.767Z,7.10
2019-02-28T20:15:46.370Z,7.77
2019-02-28T20:18:14.783Z,8.03
2019-02-28T20:20:43.266Z,10.63
2019-02-28T20:23:11.663Z,10.30
2019-02-28T20:25:40.162Z,10.70
2019-02-28T20:28:09.713Z,11.53
2019-02-28T20:30:39.885Z,11.43
2019-02-28T20:33:08.844Z,12.03
2019-02-28T20:35:37.355Z,11.00
2019-02-28T20:38:06.296Z,11.23
2019-02-28T20:40:35.044Z,12.17
2019-02-28T20:43:05.487Z,11.90
2019-02-28T20:45:33.995Z,10.57
2019-02-28T20:48:04.189Z,12.37
2019-02-28T20:50:39.699Z,11.37
2019-02-28T20:53:08.382Z,12.20
2019-02-28T20:55:36.745Z,10.60
2019-02-28T20:58:05.601Z,9.17
2019-02-28T21:00:34.408Z,8.87
2019-02-28T21:03:02.813Z,11.17
2019-02-28T21:05:32.062Z,11.97
2019-02-28T21:08:01.481Z,13.37
2019-02-28T21:10:30.181Z,15.83
2019-02-28T21:12:58.810Z,17.20
2019-02-28T21:15:27.365Z,17.90
2019-02-28T21:17:55.874Z,21.67
2019-02-28T21:20:26.911Z,25.17
2019-02-28T21:22:55.409Z,23.70
2019-02-28T21:25:23.921Z,6.80
2019-02-28T21:27:52.383Z,5.97
2019-02-28T21:30:21.364Z,6.50
2019-02-28T21:32:49.889Z,6.60
2019-02-28T21:35:18.703Z,9.00
2019-02-28T21:37:47.748Z,6.30
2019-02-28T21:40:16.837Z,5.30
2019-02-28T21:42:45.573Z,6.40
2019-02-28T21:45:16.496Z,6.30
2019-02-28T21:47:45.106Z,7.50
2019-02-28T21:50:15.508Z,8.57
2019-02-28T21:52:44.233Z,9.70
2019-02-28T21:55:13.058Z,7.97
2019-02-28T21:57:42.148Z,7.10
2019-02-28T22:00:18.149Z,6.27
2019-02-28T22:02:46.717Z,7.50
2019-02-28T22:05:15.216Z,6.53
2019-02-28T22:07:45.404Z,6.03
2019-02-28T22:10:14.031Z,6.50
2019-02-28T22:12:42.556Z,7.33
2019-02-28T22:15:14.289Z,7.67
2019-02-28T22:17:42.902Z,8.17
2019-02-28T22:20:12.617Z,8.53
2019-02-28T22:22:42.929Z,7.73
2019-02-28T22:25:13.464Z,8.27
2019-02-28T22:27:41.852Z,6.47
2019-02-28T22:30:34.843Z,8.13
2019-02-28T22:33:05.234Z,5.80
2019-02-28T22:35:43.168Z,6.40
2019-02-28T22:38:11.838Z,5.77
2019-02-28T22:40:40.319Z,5.27
2019-02-28T22:43:08.735Z,5.53
2019-02-28T22:45:37.243Z,5.90
2019-02-28T22:48:05.854Z,6.00
2019-02-28T22:50:42.363Z,5.17
2019-02-28T22:53:10.896Z,7.93
2019-02-28T22:55:39.392Z,8.50
2019-02-28T22:58:08.978Z,6.40
2019-02-28T23:00:51.623Z,6.33
2019-02-28T23:03:20.320Z,5.63
2019-02-28T23:05:48.759Z,6.23
2019-02-28T23:08:17.250Z,6.30
2019-02-28T23:10:45.843Z,5.63
2019-02-28T23:13:14.224Z,6.03
2019-02-28T23:15:42.675Z,6.70
2019-02-28T23:18:11.068Z,6.60
2019-02-28T23:20:44.637Z,6.23
2019-02-28T23:23:13.123Z,6.07
2019-02-28T23:25:41.600Z,5.80
2019-02-28T23:28:22.631Z,6.20
2019-02-28T23:32:04.253Z,5.57
2019-02-28T23:34:45.984Z,5.53
2019-02-28T23:37:14.453Z,6.50
2019-02-28T23:39:44.633Z,6.30
2019-02-28T23:42:14.812Z,4.70
2019-02-28T23:44:43.511Z,4.87
2019-02-28T23:47:12.182Z,5.83
2019-02-28T23:49:42.375Z,5.30
2019-02-28T23:52:10.986Z,5.30
2019-02-28T23:54:41.158Z,5.53
2019-02-28T23:57:09.557Z,5.33
2019-02-28T23:59:38.050Z,5.30
